createdAt,value
2022-09-01T00:02:38.599Z,21.68
2022-09-01T00:05:41.396Z,21.61
2022-09-01T00:08:46.515Z,21.63
2022-09-01T00:11:55.213Z,21.65
2022-09-01T00:14:58.218Z,21.51
2022-09-01T00:18:00.558Z,21.59
2022-09-01T00:21:02.814Z,21.53
2022-09-01T00:24:06.491Z,21.54
2022-09-01T00:27:08.647Z,21.49
2022-09-01T00:30:11.866Z,21.51
2022-09-01T00:33:13.988Z,21.54
2022-09-01T00:36:18.324Z,21.39
2022-09-01T00:39:20.376Z,21.40
2022-09-01T00:42:22.829Z,21.38
2022-09-01T00:45:25.232Z,21.29
2022-09-01T00:48:27.486Z,21.40
2022-09-01T00:51:30.907Z,21.18
2022-09-01T00:54:36.563Z,21.30
2022-09-01T00:57:39.286Z,21.40
2022-09-01T01:00:41.849Z,21.36
2022-09-01T01:03:46.965Z,21.36
2022-09-01T01:06:58.837Z,21.31
2022-09-01T01:10:01.082Z,21.19
2022-09-01T01:13:11.240Z,21.27
2022-09-01T01:16:15.878Z,21.22
2022-09-01T01:19:47.648Z,21.10
2022-09-01T01:23:05.829Z,21.15
2022-09-01T01:26:10.426Z,21.18
2022-09-01T01:29:12.540Z,21.17
2022-09-01T01:32:15.031Z,21.22
2022-09-01T01:35:20.613Z,21.23
2022-09-01T01:38:23.343Z,21.00
2022-09-01T01:41:25.828Z,21.08
2022-09-01T01:44:28.304Z,21.06
2022-09-01T01:47:30.619Z,21.07
2022-09-01T01:50:35.646Z,21.13
2022-09-01T01:53:38.794Z,20.99
2022-09-01T01:56:41.849Z,20.92
2022-09-01T01:59:45.005Z,20.90
2022-09-01T02:02:52.358Z,20.99
2022-09-01T02:05:55.049Z,20.89
2022-09-01T02:08:58.052Z,20.87
2022-09-01T02:12:00.182Z,20.87
2022-09-01T02:15:02.628Z,20.90
2022-09-01T02:18:05.966Z,20.77
2022-09-01T02:21:18.103Z,20.81
2022-09-01T02:24:21.224Z,20.78
2022-09-01T02:27:25.705Z,20.71
2022-09-01T02:30:28.613Z,20.76
2022-09-01T02:33:32.516Z,20.85
2022-09-01T02:36:35.114Z,20.81
2022-09-01T02:39:37.254Z,20.75
2022-09-01T02:42:41.619Z,20.74
2022-09-01T02:45:44.762Z,20.75
2022-09-01T02:48:51.317Z,20.69
2022-09-01T02:51:57.957Z,20.60
2022-09-01T02:55:00.523Z,20.72
2022-09-01T02:58:02.767Z,20.60
2022-09-01T03:01:04.994Z,20.71
2022-09-01T03:04:09.701Z,20.75
2022-09-01T03:07:13.771Z,20.63
2022-09-01T03:10:16.398Z,20.60
2022-09-01T03:13:22.483Z,20.64
2022-09-01T03:16:25.054Z,20.50
2022-09-01T03:19:27.335Z,20.59
2022-09-01T03:22:29.638Z,20.61
2022-09-01T03:25:34.015Z,20.60
2022-09-01T03:28:37.661Z,20.60
2022-09-01T03:31:39.918Z,20.58
2022-09-01T03:34:42.007Z,20.46
2022-09-01T03:37:45.078Z,20.48
2022-09-01T03:40:48.058Z,20.51
2022-09-01T03:43:51.281Z,20.43
2022-09-01T03:46:53.656Z,20.39
2022-09-01T03:49:56.139Z,20.44
2022-09-01T03:53:00.352Z,20.28
2022-09-01T03:56:04.137Z,20.36
2022-09-01T03:59:07.525Z,20.35
2022-09-01T04:02:11.145Z,20.19
2022-09-01T04:05:13.353Z,20.29
2022-09-01T04:08:15.987Z,20.29
2022-09-01T04:11:24.201Z,20.22
2022-09-01T04:14:27.797Z,20.30
2022-09-01T04:17:51.541Z,20.31
2022-09-01T04:20:56.949Z,20.15
2022-09-01T04:24:00.027Z,20.15
2022-09-01T04:27:03.267Z,20.04
2022-09-01T04:30:06.744Z,20.12
2022-09-01T04:33:10.301Z,20.16
2022-09-01T04:36:25.208Z,20.06
2022-09-01T04:39:28.458Z,20.02
2022-09-01T04:42:32.490Z,20.06
2022-09-01T04:45:38.026Z,20.02
2022-09-01T04:48:43.150Z,20.04
2022-09-01T04:51:54.209Z,20.07
2022-09-01T04:54:56.709Z,20.10
2022-09-01T04:58:00.733Z,20.05
2022-09-01T05:01:12.912Z,20.01
2022-09-01T05:04:18.777Z,20.05
2022-09-01T05:07:21.481Z,19.79
2022-09-01T05:10:29.170Z,20.46
2022-09-01T05:13:32.212Z,20.88
2022-09-01T05:16:36.086Z,20.92
2022-09-01T05:19:43.203Z,21.08
2022-09-01T05:22:45.257Z,21.14
2022-09-01T05:25:51.255Z,21.16
2022-09-01T05:28:56.200Z,21.17
2022-09-01T05:31:58.858Z,21.14
2022-09-01T05:35:02.086Z,21.17
2022-09-01T05:38:04.862Z,21.21
2022-09-01T05:41:11.204Z,21.28
2022-09-01T05:44:14.048Z,21.30
2022-09-01T05:47:20.451Z,21.39
2022-09-01T05:50:23.185Z,21.40
2022-09-01T05:53:26.946Z,21.40
2022-09-01T05:56:30.750Z,21.49
2022-09-01T05:59:33.128Z,21.45
2022-09-01T06:02:35.792Z,21.39
2022-09-01T06:05:39.753Z,21.21
2022-09-01T06:08:46.673Z,21.25
2022-09-01T06:11:49.230Z,21.27
2022-09-01T06:14:53.597Z,21.39
2022-09-01T06:17:56.808Z,21.43
2022-09-01T06:20:58.954Z,21.52
2022-09-01T06:24:01.186Z,21.54
2022-09-01T06:27:05.015Z,21.59
2022-09-01T06:30:14.931Z,21.60
2022-09-01T06:33:17.537Z,21.77
2022-09-01T06:36:23.932Z,21.67
2022-09-01T06:39:26.496Z,21.81
2022-09-01T06:42:28.800Z,21.90
2022-09-01T06:45:30.856Z,21.96
2022-09-01T06:48:46.555Z,22.03
2022-09-01T06:51:49.650Z,22.06
2022-09-01T06:54:55.873Z,22.12
2022-09-01T06:58:03.718Z,22.12
2022-09-01T07:01:11.966Z,22.10
2022-09-01T07:04:14.315Z,22.11
2022-09-01T07:14:15.921Z,22.38
2022-09-01T07:17:22.871Z,22.43
2022-09-01T07:20:29.221Z,22.51
2022-09-01T07:23:46.342Z,22.58
2022-09-01T07:26:50.682Z,22.57
2022-09-01T07:29:54.932Z,22.60
2022-09-01T07:33:41.283Z,22.61
2022-09-01T07:36:27.280Z,22.53
2022-09-01T07:49:30.105Z,22.66
2022-09-01T07:52:38.183Z,22.73
2022-09-01T07:55:42.222Z,22.77
2022-09-01T07:58:47.205Z,22.81
2022-09-01T08:01:50.472Z,22.86
2022-09-01T08:04:52.655Z,22.90
2022-09-01T08:07:55.058Z,22.95
2022-09-01T08:11:04.904Z,23.00
2022-09-01T08:14:07.341Z,22.96
2022-09-01T08:17:18.060Z,23.08
2022-09-01T08:20:35.073Z,23.12
2022-09-01T08:23:37.871Z,23.14
2022-09-01T08:26:40.144Z,23.18
2022-09-01T08:29:42.859Z,23.23
2022-09-01T08:32:44.989Z,23.26
2022-09-01T08:35:48.964Z,23.28
2022-09-01T08:38:52.253Z,23.27
2022-09-01T08:42:10.997Z,23.29
2022-09-01T08:45:34.035Z,23.36
2022-09-01T08:52:21.967Z,23.38
2022-09-01T08:55:35.137Z,23.30
2022-09-01T08:58:37.340Z,23.35
2022-09-01T09:01:55.795Z,23.40
2022-09-01T09:05:28.240Z,23.42
2022-09-01T09:08:47.579Z,23.42
2022-09-01T09:11:50.424Z,23.37
2022-09-01T09:15:05.595Z,23.40
2022-09-01T09:18:35.981Z,23.37
2022-09-01T09:21:47.386Z,23.40
2022-09-01T09:25:10.744Z,23.28
2022-09-01T09:28:12.914Z,23.34
2022-09-01T09:31:35.732Z,23.42
2022-09-01T09:34:40.792Z,23.37
2022-09-01T09:37:42.841Z,23.40
2022-09-01T09:41:17.188Z,23.31
2022-09-01T09:44:29.402Z,23.39
2022-09-01T09:47:46.610Z,23.35
2022-09-01T09:50:48.716Z,23.41
2022-09-01T09:53:54.272Z,23.42
2022-09-01T09:57:08.612Z,23.43
2022-09-01T10:00:26.832Z,23.47
2022-09-01T10:03:49.300Z,23.41
2022-09-01T10:06:53.836Z,23.42
2022-09-01T10:10:00.423Z,23.44
2022-09-01T10:13:03.586Z,23.39
2022-09-01T10:16:11.128Z,23.42
2022-09-01T10:19:16.362Z,23.42
2022-09-01T10:22:19.358Z,23.43
2022-09-01T10:25:24.809Z,23.37
2022-09-01T10:28:30.114Z,23.31
2022-09-01T10:31:33.676Z,23.30
2022-09-01T10:34:38.389Z,23.27
2022-09-01T10:37:42.650Z,23.27
2022-09-01T10:41:07.334Z,23.27
2022-09-01T10:44:13.684Z,23.31
2022-09-01T10:47:33.639Z,23.36
2022-09-01T10:50:36.314Z,23.42
2022-09-01T10:53:40.057Z,23.43
2022-09-01T10:56:52.380Z,23.45
2022-09-01T10:59:57.789Z,23.44
2022-09-01T11:10:34.186Z,23.50
2022-09-01T11:13:41.327Z,23.57
2022-09-01T11:16:47.797Z,23.57
2022-09-01T11:20:00.397Z,23.56
2022-09-01T11:23:12.283Z,23.56
2022-09-01T11:26:32.544Z,23.68
2022-09-01T11:29:58.710Z,23.73
2022-09-01T11:33:12.786Z,23.71
2022-09-01T11:36:35.667Z,23.73
2022-09-01T11:39:46.224Z,23.77
2022-09-01T11:42:49.572Z,23.82
2022-09-01T11:46:15.875Z,23.82
2022-09-01T11:49:36.655Z,23.88
2022-09-01T11:52:39.387Z,23.97
2022-09-01T11:55:50.162Z,23.99
2022-09-01T11:58:52.340Z,24.02
2022-09-01T12:01:58.341Z,24.08
2022-09-01T12:05:02.943Z,24.06
2022-09-01T12:08:18.256Z,24.00
2022-09-01T12:11:31.423Z,23.97
2022-09-01T12:14:55.092Z,23.96
2022-09-01T12:18:19.115Z,24.05
2022-09-01T12:21:42.893Z,24.12
2022-09-01T12:24:48.062Z,24.09
2022-09-01T12:27:50.783Z,24.10
2022-09-01T12:30:54.192Z,24.06
2022-09-01T12:33:56.939Z,24.05
2022-09-01T12:37:12.466Z,24.01
2022-09-01T12:40:33.365Z,24.00
2022-09-01T12:43:40.696Z,23.99
2022-09-01T12:46:46.629Z,23.98
2022-09-01T12:49:52.112Z,24.03
2022-09-01T12:52:58.394Z,23.99
2022-09-01T12:56:18.803Z,23.96
2022-09-01T12:59:37.347Z,23.96
2022-09-01T13:02:41.180Z,24.12
2022-09-01T13:05:51.730Z,24.21
2022-09-01T13:08:53.846Z,24.28
2022-09-01T13:12:17.042Z,24.41
2022-09-01T13:15:19.550Z,24.45
2022-09-01T13:18:24.305Z,24.53
2022-09-01T13:21:27.854Z,24.57
2022-09-01T13:24:31.658Z,24.54
2022-09-01T13:27:34.096Z,24.50
2022-09-01T13:30:37.032Z,24.49
2022-09-01T13:37:01.352Z,24.51
2022-09-01T13:40:07.176Z,24.46
2022-09-01T13:43:09.976Z,24.46
2022-09-01T13:46:12.371Z,24.51
2022-09-01T13:52:37.720Z,24.43
2022-09-01T13:55:41.522Z,24.39
2022-09-01T13:58:43.597Z,24.42
2022-09-01T14:01:48.476Z,24.48
2022-09-01T14:04:50.635Z,24.60
2022-09-01T14:07:53.498Z,24.73
2022-09-01T14:10:55.616Z,24.85
2022-09-01T14:13:57.865Z,24.84
2022-09-01T14:16:59.908Z,24.70
2022-09-01T14:20:03.001Z,24.65
2022-09-01T14:23:06.503Z,24.69
2022-09-01T14:26:11.647Z,24.61
2022-09-01T14:29:13.868Z,24.64
2022-09-01T14:32:17.104Z,24.72
2022-09-01T14:35:24.495Z,24.79
2022-09-01T14:38:26.626Z,24.82
2022-09-01T14:41:28.690Z,24.88
2022-09-01T14:44:34.487Z,24.92
2022-09-01T14:47:36.546Z,25.03
2022-09-01T14:50:44.197Z,25.12
2022-09-01T14:53:46.238Z,25.08
2022-09-01T15:00:14.714Z,25.16
2022-09-01T15:03:20.579Z,25.18
2022-09-01T15:06:24.700Z,25.18
2022-09-01T15:09:26.802Z,25.19
2022-09-01T15:12:30.890Z,25.12
2022-09-01T15:15:33.923Z,25.01
2022-09-01T15:18:36.023Z,24.94
2022-09-01T15:21:41.184Z,24.88
2022-09-01T15:24:43.610Z,24.77
2022-09-01T15:27:46.122Z,24.70
2022-09-01T15:30:48.274Z,24.65
2022-09-01T15:33:51.094Z,24.64
2022-09-01T15:36:53.114Z,24.68
2022-09-01T15:39:55.183Z,24.64
2022-09-01T15:42:57.920Z,24.60
2022-09-01T15:46:04.004Z,24.59
2022-09-01T15:49:08.630Z,24.60
2022-09-01T15:52:10.712Z,24.62
2022-09-01T15:55:12.872Z,24.69
2022-09-01T15:58:17.681Z,24.72
2022-09-01T16:01:22.342Z,24.73
2022-09-01T16:04:27.695Z,24.74
2022-09-01T16:07:30.125Z,24.74
2022-09-01T16:10:34.957Z,24.73
2022-09-01T16:13:40.740Z,24.72
2022-09-01T16:17:10.569Z,24.73
2022-09-01T16:20:25.538Z,24.72
2022-09-01T16:23:48.947Z,24.76
2022-09-01T16:26:51.873Z,24.84
2022-09-01T16:29:56.851Z,24.84
2022-09-01T16:33:03.698Z,24.80
2022-09-01T16:36:08.993Z,24.76
2022-09-01T16:39:16.833Z,24.69
2022-09-01T16:42:46.952Z,24.63
2022-09-01T16:46:04.133Z,24.54
2022-09-01T16:49:28.808Z,24.51
2022-09-01T16:52:44.115Z,24.48
2022-09-01T16:56:07.944Z,24.45
2022-09-01T16:59:31.656Z,24.42
2022-09-01T17:02:45.847Z,24.39
2022-09-01T17:05:56.108Z,24.38
2022-09-01T17:09:15.179Z,24.40
2022-09-01T17:12:40.253Z,24.35
2022-09-01T17:15:44.155Z,24.39
2022-09-01T17:19:04.800Z,24.33
2022-09-01T17:22:11.489Z,24.32
2022-09-01T17:25:25.970Z,24.30
2022-09-01T17:28:35.723Z,24.29
2022-09-01T17:32:02.712Z,24.29
2022-09-01T17:35:38.147Z,24.29
2022-09-01T17:39:24.013Z,24.27
2022-09-01T17:42:58.013Z,24.25
2022-09-01T17:46:27.213Z,24.24
2022-09-01T17:49:37.276Z,24.23
2022-09-01T17:52:54.541Z,24.18
2022-09-01T17:56:09.215Z,24.16
2022-09-01T17:59:46.408Z,24.17
2022-09-01T18:03:19.127Z,24.17
2022-09-01T18:06:33.247Z,24.12
2022-09-01T18:09:43.047Z,24.13
2022-09-01T18:12:49.615Z,24.13
2022-09-01T18:15:58.559Z,24.08
2022-09-01T18:19:16.011Z,24.08
2022-09-01T18:22:20.902Z,24.08
2022-09-01T18:25:40.726Z,24.05
2022-09-01T18:28:42.900Z,24.04
2022-09-01T18:32:07.901Z,24.02
2022-09-01T18:35:25.836Z,24.01
2022-09-01T18:38:39.642Z,24.02
2022-09-01T18:42:04.617Z,24.01
2022-09-01T18:45:46.863Z,23.99
2022-09-01T18:49:02.131Z,23.98
2022-09-01T18:52:16.888Z,23.96
2022-09-01T18:55:28.064Z,23.98
2022-09-01T18:58:45.734Z,23.97
2022-09-01T19:02:13.259Z,23.96
2022-09-01T19:05:33.674Z,23.97
2022-09-01T19:08:45.285Z,23.95
2022-09-01T19:12:11.205Z,23.95
2022-09-01T19:15:25.684Z,23.91
2022-09-01T19:18:43.109Z,23.92
2022-09-01T19:21:48.401Z,23.91
2022-09-01T19:25:25.630Z,23.91
2022-09-01T19:28:43.844Z,23.88
2022-09-01T19:31:53.272Z,23.86
2022-09-01T19:35:06.224Z,23.86
2022-09-01T19:38:11.949Z,23.89
2022-09-01T19:41:25.769Z,23.87
2022-09-01T19:44:48.675Z,23.83
2022-09-01T19:48:02.738Z,23.82
2022-09-01T19:51:23.702Z,23.86
2022-09-01T19:54:28.925Z,23.85
2022-09-01T19:58:06.911Z,23.85
2022-09-01T20:01:14.540Z,23.86
2022-09-01T20:04:27.117Z,23.82
2022-09-01T20:07:37.532Z,23.83
2022-09-01T20:11:14.584Z,23.79
2022-09-01T20:14:42.777Z,23.82
2022-09-01T20:17:55.527Z,23.71
2022-09-01T20:21:02.840Z,23.67
2022-09-01T20:24:28.241Z,23.64
2022-09-01T20:27:37.106Z,23.61
2022-09-01T20:30:55.894Z,23.46
2022-09-01T20:34:32.643Z,23.44
2022-09-01T20:37:39.777Z,23.51
2022-09-01T20:40:42.785Z,23.44
2022-09-01T20:43:48.970Z,23.49
2022-09-01T20:46:52.093Z,23.44
2022-09-01T20:49:54.206Z,23.42
2022-09-01T20:53:11.611Z,23.40
2022-09-01T20:56:40.363Z,23.34
2022-09-01T20:59:51.999Z,23.38
2022-09-01T21:03:00.871Z,23.35
2022-09-01T21:06:38.660Z,23.30
2022-09-01T21:09:57.656Z,23.26
2022-09-01T21:13:24.929Z,23.24
2022-09-01T21:17:17.883Z,23.25
2022-09-01T21:20:53.781Z,23.26
2022-09-01T21:23:55.963Z,23.18
2022-09-01T21:26:59.449Z,23.15
2022-09-01T21:30:06.364Z,23.16
2022-09-01T21:33:08.445Z,23.14
2022-09-01T21:36:10.759Z,23.11
2022-09-01T21:39:14.259Z,23.16
2022-09-01T21:42:16.334Z,23.20
2022-09-01T21:45:20.046Z,23.15
2022-09-01T21:48:22.106Z,23.07
2022-09-01T21:51:24.268Z,23.09
2022-09-01T21:54:26.506Z,23.07
2022-09-01T21:57:28.591Z,23.07
2022-09-01T22:00:34.366Z,23.08
2022-09-01T22:03:36.512Z,23.07
2022-09-01T22:06:40.202Z,23.02
2022-09-01T22:09:43.483Z,23.03
2022-09-01T22:12:47.652Z,22.96
2022-09-01T22:15:52.506Z,23.00
2022-09-01T22:18:54.834Z,22.93
2022-09-01T22:21:59.012Z,22.90
2022-09-01T22:25:05.733Z,22.96
2022-09-01T22:28:07.891Z,22.98
2022-09-01T22:31:14.335Z,22.83
2022-09-01T22:34:16.430Z,22.92
2022-09-01T22:37:18.757Z,22.90
2022-09-01T22:40:20.924Z,22.87
2022-09-01T22:43:24.754Z,22.93
2022-09-01T22:46:27.506Z,22.86
2022-09-01T22:49:29.902Z,22.77
2022-09-01T22:52:32.113Z,22.86
2022-09-01T22:55:38.942Z,22.84
2022-09-01T22:58:41.785Z,22.73
2022-09-01T23:01:46.399Z,22.76
2022-09-01T23:04:49.991Z,22.77
2022-09-01T23:07:53.709Z,22.72
2022-09-01T23:10:55.902Z,22.78
2022-09-01T23:13:58.495Z,22.71
2022-09-01T23:17:00.753Z,22.75
2022-09-01T23:20:03.669Z,22.71
2022-09-01T23:23:05.997Z,22.71
2022-09-01T23:26:10.838Z,22.67
2022-09-01T23:29:12.927Z,22.69
2022-09-01T23:32:15.176Z,22.69
2022-09-01T23:35:17.405Z,22.60
2022-09-01T23:38:21.057Z,22.62
2022-09-01T23:41:28.855Z,22.63
2022-09-01T23:44:30.979Z,22.61
2022-09-01T23:47:33.260Z,22.62
2022-09-01T23:50:43.737Z,22.56
2022-09-01T23:53:46.825Z,22.61
2022-09-01T23:56:49.227Z,22.42
2022-09-01T23:59:51.364Z,22.35
